Time;durP1;ratioP1;P1;durP2;ratioP2;P2;SDS_P1;SDS_P2;PMS_P1;PMS_P2;Temp;Humidity;BMP_temperature;BMP_pressure;BME280_temperature;BME280_humidity;BME280_pressure;Samples;Min_cycle;Max_cycle;Signal;HPM_P1;HPM_P2
2023/05/13 00:00:44;;;;;;;;;10.50;9.00;;;;;14.40;70.37;101127.84;5074515;27;45640;-82
2023/05/13 00:03:09;;;;;;;;;15.00;10.00;;;;;14.41;70.55;101121.63;5074675;27;45710;-81
2023/05/13 00:08:56;;;;;;;;;9.00;8.75;;;;;14.40;70.59;101109.41;5062747;28;46059;-80
2023/05/13 00:11:22;;;;;;;;;10.75;10.25;;;;;14.38;70.54;101116.56;5075030;27;45744;-79
2023/05/13 00:13:47;;;;;;;;;9.25;9.00;;;;;14.40;70.72;101127.00;5073346;28;46032;-79
2023/05/13 00:16:13;;;;;;;;;8.00;7.50;;;;;14.36;70.72;101120.28;5074404;28;46372;-78
2023/05/13 00:18:38;;;;;;;;;11.75;9.75;;;;;14.44;71.13;101123.16;5074393;27;45619;-78
2023/05/13 00:24:26;;;;;;;;;10.25;9.75;;;;;14.45;70.76;101120.41;5074312;28;45691;-81
2023/05/13 00:26:52;;;;;;;;;13.00;12.25;;;;;14.48;70.90;101127.22;5074594;27;46427;-78
2023/05/13 00:29:17;;;;;;;;;10.25;8.50;;;;;14.49;70.95;101113.09;5074633;27;45889;-76
2023/05/13 00:31:42;;;;;;;;;10.25;9.00;;;;;14.53;70.69;101127.69;5075141;27;45698;-78
2023/05/13 00:34:08;;;;;;;;;10.00;9.50;;;;;14.55;70.72;101129.28;5076236;27;45757;-81
2023/05/13 00:36:33;;;;;;;;;11.75;10.00;;;;;14.51;70.96;101142.81;5079672;27;45585;-83
2023/05/13 00:38:59;;;;;;;;;8.00;8.00;;;;;14.48;70.86;101124.59;5083439;27;45679;-78
2023/05/13 00:41:24;;;;;;;;;9.50;9.50;;;;;14.50;70.96;101123.53;5084529;27;45704;-78
2023/05/13 00:43:53;;;;;;;;;11.75;10.00;;;;;14.46;71.03;101126.53;5083749;27;45617;-76
2023/05/13 00:46:18;;;;;;;;;13.75;10.00;;;;;14.46;70.97;101114.19;5078330;28;45548;-79
2023/05/13 00:48:44;;;;;;;;;10.75;9.00;;;;;14.47;71.39;101113.22;5075449;27;45553;-76
2023/05/13 00:54:31;;;;;;;;;11.50;10.00;;;;;14.53;71.35;101133.81;5077676;28;45510;-82
2023/05/13 00:56:58;;;;;;;;;9.50;8.75;;;;;14.54;71.17;101132.88;5078714;27;45660;-76
2023/05/13 00:59:26;;;;;;;;;13.00;11.75;;;;;14.54;71.43;101143.41;5079364;27;46187;-80
2023/05/13 01:02:13;;;;;;;;;8.00;7.50;;;;;14.51;71.04;101141.03;5078244;28;45538;-83
2023/05/13 01:04:49;;;;;;;;;9.25;8.75;;;;;14.50;71.42;101127.97;5079119;28;45698;-81
2023/05/13 01:07:34;;;;;;;;;9.50;9.00;;;;;14.50;71.44;101135.88;5077734;27;45608;-79
2023/05/13 01:10:10;;;;;;;;;9.00;9.00;;;;;14.51;71.23;101135.75;5093346;27;46207;-86
2023/05/13 01:12:39;;;;;;;;;10.75;10.00;;;;;14.54;71.51;101132.03;5078045;27;45765;-76
2023/05/13 01:15:10;;;;;;;;;12.00;10.25;;;;;14.55;71.61;101133.69;5077808;27;45653;-81
2023/05/13 01:17:56;;;;;;;;;9.50;8.50;;;;;14.52;71.59;101128.69;5092495;27;49087;-79
2023/05/13 01:20:22;;;;;;;;;10.00;9.75;;;;;14.52;71.85;101120.78;5076774;28;46018;-80
2023/05/13 01:22:48;;;;;;;;;10.00;9.00;;;;;14.53;71.55;101123.28;5075700;28;45756;-79
2023/05/13 01:25:14;;;;;;;;;12.00;11.00;;;;;14.56;71.32;101130.97;5077098;27;45652;-81
2023/05/13 01:27:40;;;;;;;;;17.25;12.00;;;;;14.56;71.41;101124.84;5076858;27;46354;-77
2023/05/13 01:30:07;;;;;;;;;11.00;10.50;;;;;14.57;71.36;101123.88;5077007;27;46278;-77
2023/05/13 01:32:34;;;;;;;;;12.25;11.00;;;;;14.55;71.55;101134.53;5077041;28;45687;-78
2023/05/13 01:35:01;;;;;;;;;13.75;12.50;;;;;14.55;71.58;101131.06;5075668;28;45529;-79
2023/05/13 01:37:27;;;;;;;;;13.00;12.00;;;;;14.56;71.82;101138.88;5076946;27;46467;-77
2023/05/13 01:39:53;;;;;;;;;12.25;11.00;;;;;14.56;71.51;101128.31;5075167;28;46105;-77
2023/05/13 01:42:18;;;;;;;;;13.00;11.75;;;;;14.49;71.55;101129.75;5076957;27;45644;-78
2023/05/13 01:44:44;;;;;;;;;12.75;11.00;;;;;14.50;71.83;101134.06;5076999;27;45708;-80
2023/05/13 01:47:09;;;;;;;;;11.50;10.25;;;;;14.43;71.92;101126.75;5076813;27;46345;-80
2023/05/13 01:49:34;;;;;;;;;12.75;12.00;;;;;14.43;72.19;101148.69;5076872;27;46352;-77
2023/05/13 01:55:21;;;;;;;;;16.50;13.75;;;;;14.43;72.16;101138.13;5077251;28;45664;-80
2023/05/13 01:57:47;;;;;;;;;12.00;12.00;;;;;14.42;72.23;101146.16;5077308;28;46433;-79
2023/05/13 02:00:13;;;;;;;;;11.50;10.50;;;;;14.39;72.38;101142.00;5076954;27;46471;-83
2023/05/13 02:02:38;;;;;;;;;16.25;13.50;;;;;14.40;72.05;101154.22;5076954;27;45871;-80
2023/05/13 02:05:04;;;;;;;;;14.00;12.50;;;;;14.38;72.24;101145.56;5076949;27;45646;-84
2023/05/13 02:11:05;;;;;;;;;15.25;11.00;;;;;14.39;72.38;101146.41;5067207;28;46047;-84
2023/05/13 02:13:30;;;;;;;;;11.00;10.00;;;;;14.38;72.44;101142.94;5076496;27;45631;-85
2023/05/13 02:15:56;;;;;;;;;10.75;10.00;;;;;14.37;72.51;101135.97;5076549;27;45613;-81
2023/05/13 02:18:22;;;;;;;;;15.00;12.75;;;;;14.39;72.38;101146.41;5076451;27;46308;-85
2023/05/13 02:20:47;;;;;;;;;11.25;10.75;;;;;14.36;72.34;101142.19;5076640;27;45631;-84
2023/05/13 02:23:13;;;;;;;;;15.50;13.00;;;;;14.38;72.58;101140.31;5076661;27;45500;-84
2023/05/13 02:25:41;;;;;;;;;15.00;13.00;;;;;14.41;72.26;101141.88;5076424;27;45752;-78
2023/05/13 02:28:06;;;;;;;;;16.50;14.25;;;;;14.45;72.38;101143.31;5076886;27;46383;-83
2023/05/13 02:30:32;;;;;;;;;19.00;17.00;;;;;14.48;72.53;101143.88;5076728;28;45594;-83
2023/05/13 02:32:57;;;;;;;;;15.50;14.00;;;;;14.49;72.25;101142.94;5076411;27;45624;-80
2023/05/13 02:35:24;;;;;;;;;18.25;15.25;;;;;14.48;72.10;101135.97;5076682;27;45688;-78
2023/05/13 02:41:11;;;;;;;;;21.50;19.25;;;;;14.53;72.10;101141.72;5075515;28;45639;-81
2023/05/13 02:43:37;;;;;;;;;21.75;16.75;;;;;14.55;72.29;101137.19;5075924;27;45450;-84
2023/05/13 02:46:02;;;;;;;;;15.25;14.00;;;;;14.59;72.44;101135.13;5075997;27;45797;-85
2023/05/13 02:48:28;;;;;;;;;23.00;20.00;;;;;14.59;72.20;101127.22;5075689;27;46169;-77
2023/05/13 02:50:53;;;;;;;;;25.00;20.50;;;;;14.60;72.56;101128.91;5076075;27;46119;-82
2023/05/13 02:53:18;;;;;;;;;19.25;18.25;;;;;14.62;72.10;101140.19;5075748;27;45588;-84
2023/05/13 02:55:44;;;;;;;;;16.00;14.50;;;;;14.64;71.94;101132.97;5091606;27;45652;-82
2023/05/13 02:58:09;;;;;;;;;23.75;18.25;;;;;14.64;72.35;101135.59;5075686;27;46623;-81
2023/05/13 03:00:35;;;;;;;;;20.00;18.25;;;;;14.62;72.10;101137.53;5075420;27;45697;-80
2023/05/13 03:03:00;;;;;;;;;18.50;17.75;;;;;14.65;72.25;101138.13;5075603;27;45619;-78
2023/05/13 03:05:25;;;;;;;;;18.75;16.75;;;;;14.66;72.21;101133.69;5075764;27;45702;-78
2023/05/13 03:11:13;;;;;;;;;18.50;17.75;;;;;14.64;72.48;101147.00;5071563;28;45856;-78
2023/05/13 03:13:39;;;;;;;;;29.75;26.50;;;;;14.61;72.71;101146.41;5075851;27;45589;-79
2023/05/13 03:16:04;;;;;;;;;25.75;24.50;;;;;14.63;72.51;101144.47;5075957;27;45628;-79
2023/05/13 03:18:31;;;;;;;;;26.00;24.25;;;;;14.65;72.43;101147.84;5075612;27;45582;-80
2023/05/13 03:20:57;;;;;;;;;25.75;24.00;;;;;14.65;72.38;101161.03;5075621;27;46232;-80
2023/05/13 03:26:44;;;;;;;;;26.00;25.00;;;;;14.62;72.60;101143.66;5076654;28;45721;-84
2023/05/13 03:29:09;;;;;;;;;28.50;25.00;;;;;14.62;72.81;101150.72;5092180;27;48554;-80
2023/05/13 03:31:36;;;;;;;;;33.50;29.00;;;;;14.60;72.49;101144.72;5076143;28;45740;-81
2023/05/13 03:34:01;;;;;;;;;30.25;27.50;;;;;14.57;73.03;101140.56;5075652;27;45659;-82
2023/05/13 03:36:27;;;;;;;;;33.00;26.75;;;;;14.57;72.79;101137.06;5076444;27;45720;-82
2023/05/13 03:38:52;;;;;;;;;33.25;31.25;;;;;14.58;72.78;101146.63;5075653;27;46278;-84
2023/05/13 03:41:17;;;;;;;;;36.50;33.75;;;;;14.55;72.87;101138.97;5075138;27;45940;-84
2023/05/13 03:43:43;;;;;;;;;39.25;35.50;;;;;14.53;72.85;101148.78;5075216;27;45628;-84
2023/05/13 03:46:09;;;;;;;;;51.75;36.25;;;;;14.51;72.99;101148.09;5075507;28;45775;-81
2023/05/13 03:48:35;;;;;;;;;46.00;38.00;;;;;14.48;72.87;101145.69;5074850;27;45871;-84
2023/05/13 03:51:01;;;;;;;;;52.50;40.25;;;;;14.46;73.60;101148.47;5074901;27;46097;-84
2023/05/13 03:56:48;;;;;;;;;44.25;37.00;;;;;14.47;73.78;101159.81;5074874;28;45551;-84
2023/05/13 03:59:14;;;;;;;;;56.00;42.50;;;;;14.47;73.63;101167.72;5073372;28;48157;-84
2023/05/13 04:01:39;;;;;;;;;56.00;44.25;;;;;14.51;73.84;101174.47;5074983;27;45900;-80
2023/05/13 04:04:05;;;;;;;;;60.25;45.25;;;;;14.49;73.76;101169.31;5075061;27;45671;-81
2023/05/13 04:06:30;;;;;;;;;56.25;45.00;;;;;14.48;73.70;101166.78;5075991;27;45887;-85
2023/05/13 04:12:17;;;;;;;;;56.75;44.75;;;;;14.47;73.98;101175.63;5063283;28;45822;-82
2023/05/13 04:14:43;;;;;;;;;62.75;49.50;;;;;14.49;73.95;101179.00;5074712;28;45529;-83
2023/05/13 04:17:08;;;;;;;;;60.75;46.75;;;;;14.50;73.94;101181.53;5075605;27;45584;-84
2023/05/13 04:19:33;;;;;;;;;62.00;49.25;;;;;14.49;73.92;101179.00;5074172;27;46190;-83
2023/05/13 04:21:59;;;;;;;;;61.25;48.25;;;;;14.51;74.29;101177.09;5074218;27;45502;-83
2023/05/13 04:24:24;;;;;;;;;58.00;48.25;;;;;14.51;73.85;101175.31;5074366;28;45693;-82
2023/05/13 04:26:50;;;;;;;;;53.75;45.25;;;;;14.50;74.31;101176.25;5074445;27;45840;-82
2023/05/13 04:29:16;;;;;;;;;64.50;47.00;;;;;14.54;74.09;101180.31;5074597;27;45507;-82
2023/05/13 04:31:42;;;;;;;;;60.25;48.50;;;;;14.55;74.08;101178.53;5074190;27;45623;-81
2023/05/13 04:34:08;;;;;;;;;56.00;46.50;;;;;14.55;73.94;101192.56;5073767;28;45591;-80
2023/05/13 04:36:33;;;;;;;;;58.25;47.50;;;;;14.54;74.02;101190.88;5074509;27;45774;-83
2023/05/13 04:42:20;;;;;;;;;60.75;47.25;;;;;14.52;73.99;101187.50;5074361;28;45793;-84
2023/05/13 04:44:45;;;;;;;;;57.75;47.50;;;;;14.48;73.54;101186.06;5074669;27;45672;-81
2023/05/13 04:47:11;;;;;;;;;62.50;47.50;;;;;14.45;73.71;101188.13;5076176;27;45486;-84
2023/05/13 04:49:36;;;;;;;;;58.00;46.00;;;;;14.46;73.93;101185.38;5076104;27;45601;-85
2023/05/13 04:58:27;;;;;;;;;60.50;47.50;;;;;14.42;73.98;101202.38;5073554;28;45690;-80
2023/05/13 05:00:53;;;;;;;;;59.50;47.50;;;;;14.44;73.96;101203.09;5073282;27;45531;-84
2023/05/13 05:03:19;;;;;;;;;58.50;46.00;;;;;14.43;73.79;101211.13;5073635;27;46035;-84
2023/05/13 05:05:44;;;;;;;;;61.00;45.50;;;;;14.42;74.07;101212.06;5073780;27;45549;-78
2023/05/13 05:08:10;;;;;;;;;60.75;48.25;;;;;14.44;73.68;101213.66;5073320;27;45604;-78
2023/05/13 05:10:35;;;;;;;;;57.75;46.00;;;;;14.47;73.94;101213.41;5073537;27;45557;-78
2023/05/13 05:13:00;;;;;;;;;59.00;47.25;;;;;14.49;73.73;101219.41;5073018;27;46132;-79
2023/05/13 05:15:26;;;;;;;;;56.25;45.75;;;;;14.52;73.60;101216.50;5073042;27;45570;-76
2023/05/13 05:17:51;;;;;;;;;57.50;47.75;;;;;14.55;73.50;101228.63;5073083;27;45489;-78
2023/05/13 05:20:17;;;;;;;;;59.25;46.00;;;;;14.57;72.99;101229.38;5073119;27;47127;-77
2023/05/13 05:22:42;;;;;;;;;59.75;47.75;;;;;14.55;73.44;101234.75;5073077;27;46926;-78
2023/05/13 05:25:09;;;;;;;;;57.00;46.00;;;;;14.55;73.41;101226.00;5073153;27;45512;-76
2023/05/13 05:27:34;;;;;;;;;60.75;48.00;;;;;14.55;72.97;101236.53;5073192;27;45926;-78
2023/05/13 05:29:59;;;;;;;;;58.25;45.00;;;;;14.52;73.40;101242.88;5073184;28;46260;-79
2023/05/13 05:32:25;;;;;;;;;57.75;46.25;;;;;14.50;72.79;101244.81;5073409;27;46595;-75
2023/05/13 05:34:50;;;;;;;;;53.75;44.50;;;;;14.53;73.25;101256.91;5072945;27;45672;-79
2023/05/13 05:37:15;;;;;;;;;54.25;44.75;;;;;14.53;73.22;101249.00;5073285;27;45663;-76
2023/05/13 05:43:02;;;;;;;;;56.50;42.25;;;;;14.51;73.06;101250.94;5073080;28;46362;-81
2023/05/13 05:45:28;;;;;;;;;58.25;47.00;;;;;14.54;72.63;101255.97;5076147;27;45670;-80
2023/05/13 05:47:54;;;;;;;;;56.50;44.25;;;;;14.53;72.64;101259.53;5076927;27;45560;-75
2023/05/13 05:50:19;;;;;;;;;62.75;48.00;;;;;14.54;72.68;101267.34;5076573;27;45480;-76
2023/05/13 05:52:45;;;;;;;;;54.25;43.75;;;;;14.52;72.46;101266.63;5076210;27;47015;-76
2023/05/13 05:58:32;;;;;;;;;55.25;43.25;;;;;14.56;72.76;101276.00;5076194;28;45505;-76
2023/05/13 06:00:59;;;;;;;;;59.00;47.00;;;;;14.52;72.38;101279.78;5075972;27;47733;-77
2023/05/13 06:03:25;;;;;;;;;55.75;44.75;;;;;14.53;72.55;101276.22;5076368;27;46215;-76
2023/05/13 06:05:51;;;;;;;;;53.75;44.75;;;;;14.55;72.16;101282.22;5075972;27;45816;-76
2023/05/13 06:08:17;;;;;;;;;58.25;45.00;;;;;14.56;72.55;101288.34;5076251;27;45831;-77
2023/05/13 06:10:43;;;;;;;;;48.75;41.00;;;;;14.57;72.16;101284.75;5076258;28;46647;-75
2023/05/13 06:13:09;;;;;;;;;52.50;43.00;;;;;14.60;71.94;101287.13;5075986;27;47426;-77
2023/05/13 06:15:36;;;;;;;;;46.50;40.00;;;;;14.63;71.76;101292.16;5076164;27;45629;-76
2023/05/13 06:18:04;;;;;;;;;53.75;44.00;;;;;14.66;72.14;101287.50;5075758;27;45752;-76
2023/05/13 06:20:30;;;;;;;;;51.25;41.00;;;;;14.69;71.79;101287.25;5075716;27;47303;-74
2023/05/13 06:22:55;;;;;;;;;56.00;43.50;;;;;14.69;71.49;101289.06;5076191;27;45671;-76
2023/05/13 06:25:20;;;;;;;;;56.00;45.25;;;;;14.80;71.63;101296.97;5075864;27;45733;-77
2023/05/13 06:27:45;;;;;;;;;55.00;43.25;;;;;14.82;71.28;101302.13;5076087;27;45621;-77
2023/05/13 06:30:11;;;;;;;;;54.75;44.00;;;;;14.79;71.46;101297.94;5075767;27;45566;-77
2023/05/13 06:32:36;;;;;;;;;56.25;43.75;;;;;14.79;71.12;101299.75;5091378;27;48074;-79
2023/05/13 06:35:02;;;;;;;;;52.75;43.00;;;;;14.80;71.40;101307.53;5091218;27;45753;-77
2023/05/13 06:37:27;;;;;;;;;53.50;40.75;;;;;14.81;71.36;101309.22;5075860;28;45684;-78
2023/05/13 06:39:53;;;;;;;;;52.75;41.25;;;;;14.87;70.96;101303.47;5075596;27;46350;-78
2023/05/13 06:42:18;;;;;;;;;53.00;43.00;;;;;14.90;71.00;101311.13;5075639;27;45553;-78
2023/05/13 06:44:43;;;;;;;;;53.00;43.75;;;;;14.92;71.05;101313.66;5075173;27;45777;-79
2023/05/13 06:47:13;;;;;;;;;54.75;42.50;;;;;14.92;70.77;101306.56;5074530;27;45772;-76
2023/05/13 06:49:38;;;;;;;;;50.50;42.50;;;;;14.98;71.11;101316.66;5075467;27;45670;-78
2023/05/13 06:52:04;;;;;;;;;55.25;42.25;;;;;15.03;70.73;101317.13;5075500;27;45592;-76
2023/05/13 06:54:30;;;;;;;;;52.50;42.50;;;;;15.09;70.32;101314.03;5075284;28;45674;-80
2023/05/13 06:56:56;;;;;;;;;55.50;43.75;;;;;15.12;70.36;101316.41;5074603;27;45506;-77
2023/05/13 06:59:21;;;;;;;;;51.00;40.25;;;;;15.18;70.14;101319.53;5074863;27;45630;-77
2023/05/13 07:01:47;;;;;;;;;50.75;41.00;;;;;15.20;70.34;101318.44;5075192;28;46248;-76
2023/05/13 07:04:12;;;;;;;;;50.50;40.75;;;;;15.22;70.01;101321.81;5075445;28;45708;-78
2023/05/13 07:06:40;;;;;;;;;55.25;43.75;;;;;15.25;69.65;101323.38;5075526;27;45739;-78
2023/05/13 07:09:08;;;;;;;;;53.25;43.00;;;;;15.27;69.88;101330.22;5075070;27;46314;-76
2023/05/13 07:11:34;;;;;;;;;49.50;42.25;;;;;15.30;69.71;101329.13;5075147;27;45731;-77
2023/05/13 07:13:59;;;;;;;;;54.00;43.00;;;;;15.30;69.74;101324.69;5075405;27;45779;-77
2023/05/13 07:16:25;;;;;;;;;55.00;44.50;;;;;15.32;69.66;101332.50;5075581;27;45704;-79
2023/05/13 07:18:50;;;;;;;;;55.50;44.50;;;;;15.31;69.54;101331.66;5075129;27;45595;-77
2023/05/13 07:21:15;;;;;;;;;52.50;41.75;;;;;15.29;69.58;101323.00;5075359;27;45917;-76
2023/05/13 07:23:41;;;;;;;;;52.50;40.25;;;;;15.31;69.37;101321.09;5075224;27;45659;-76
2023/05/13 07:29:30;;;;;;;;;53.50;43.00;;;;;15.41;69.45;101318.53;5074085;28;45621;-77
2023/05/13 07:31:55;;;;;;;;;49.00;39.75;;;;;15.43;69.16;101312.19;5073339;28;47912;-76
2023/05/13 07:34:20;;;;;;;;;52.00;42.00;;;;;15.44;69.02;101318.28;5074826;27;45588;-75
2023/05/13 07:36:46;;;;;;;;;51.25;42.25;;;;;15.44;68.90;101319.13;5074944;27;45615;-77
2023/05/13 07:39:11;;;;;;;;;58.50;45.50;;;;;15.45;68.96;101327.88;5074555;27;45582;-79
2023/05/13 07:44:58;;;;;;;;;52.25;40.50;;;;;15.46;68.81;101327.78;5074954;28;45550;-84
2023/05/13 07:47:24;;;;;;;;;56.50;46.50;;;;;15.47;68.83;101323.34;5076300;27;45763;-78
2023/05/13 07:49:49;;;;;;;;;55.75;45.00;;;;;15.47;68.71;101326.81;5074974;27;45590;-83
2023/05/13 07:52:15;;;;;;;;;53.50;42.75;;;;;15.49;68.64;101335.44;5074760;27;45860;-81
2023/05/13 07:54:40;;;;;;;;;52.00;43.00;;;;;15.46;68.64;101329.56;5073157;28;45621;-88
2023/05/13 07:57:05;;;;;;;;;59.25;46.25;;;;;15.49;68.67;101324.88;5075036;27;45568;-85
2023/05/13 07:59:31;;;;;;;;;56.00;45.25;;;;;15.49;68.66;101329.34;5074283;27;46534;-82
2023/05/13 08:01:56;;;;;;;;;57.00;44.75;;;;;15.46;68.49;101334.84;5074345;27;46317;-79
2023/05/13 08:04:22;;;;;;;;;56.75;45.75;;;;;15.49;68.76;101334.63;5074143;27;46108;-78
2023/05/13 08:06:47;;;;;;;;;60.75;45.50;;;;;15.56;68.78;101333.19;5074323;27;45822;-76
2023/05/13 08:09:13;;;;;;;;;57.50;44.50;;;;;15.58;68.72;101335.72;5072845;28;48951;-84
2023/05/13 08:15:40;;;;;;;;;54.50;44.75;;;;;15.64;68.65;101353.72;5069300;28;45864;-75
2023/05/13 08:18:05;;;;;;;;;57.75;46.25;;;;;15.66;68.38;101342.03;5074595;28;45728;-81
2023/05/13 08:20:31;;;;;;;;;65.50;49.25;;;;;15.70;68.39;101340.88;5074539;27;45627;-82
2023/05/13 08:22:57;;;;;;;;;57.00;44.00;;;;;15.71;68.45;101349.63;5075137;27;46037;-80
2023/05/13 08:25:23;;;;;;;;;55.00;44.75;;;;;15.75;68.40;101351.06;5074882;28;45694;-83
2023/05/13 08:27:48;;;;;;;;;65.25;48.25;;;;;15.76;68.14;101348.25;5075216;27;45642;-81
2023/05/13 08:30:14;;;;;;;;;57.00;46.75;;;;;15.81;68.08;101351.41;5073568;28;47284;-79
2023/05/13 08:32:39;;;;;;;;;57.25;43.75;;;;;15.90;67.94;101349.81;5074898;28;46284;-84
2023/05/13 08:35:05;;;;;;;;;59.25;47.50;;;;;15.95;67.53;101355.56;5074410;27;45470;-80
2023/05/13 08:37:30;;;;;;;;;61.00;48.25;;;;;16.00;67.61;101350.72;5074520;27;45777;-86
2023/05/13 08:39:58;;;;;;;;;60.25;48.00;;;;;16.04;68.03;101351.31;5072665;28;48549;-83
2023/05/13 08:45:46;;;;;;;;;62.25;47.50;;;;;16.19;67.10;101356.19;5073931;28;45542;-82
2023/05/13 08:48:15;;;;;;;;;61.25;48.25;;;;;16.20;67.25;101357.00;5075186;27;45490;-82
2023/05/13 08:50:41;;;;;;;;;61.00;48.25;;;;;16.21;66.95;101359.53;5075396;27;45611;-85
2023/05/13 08:53:07;;;;;;;;;61.25;47.75;;;;;16.22;66.98;101357.72;5074863;27;46223;-83
2023/05/13 08:55:32;;;;;;;;;62.75;47.50;;;;;16.23;66.51;101356.78;5075100;27;45742;-82
2023/05/13 08:57:58;;;;;;;;;58.75;46.00;;;;;16.19;66.38;101353.56;5074843;27;45765;-86
2023/05/13 09:00:24;;;;;;;;;61.25;48.75;;;;;16.22;66.71;101360.38;5091911;27;46696;-81
2023/05/13 09:02:50;;;;;;;;;57.75;48.00;;;;;16.26;66.94;101356.50;5078011;27;45653;-84
2023/05/13 09:05:16;;;;;;;;;57.00;45.75;;;;;16.28;66.63;101354.59;5079990;28;45880;-78
2023/05/13 09:07:41;;;;;;;;;64.00;48.50;;;;;16.28;66.29;101339.56;5077827;27;45484;-88
2023/05/13 09:10:07;;;;;;;;;58.00;47.50;;;;;16.33;66.08;101336.53;5076297;28;46173;-84
2023/05/13 09:15:56;;;;;;;;;60.75;48.00;;;;;16.52;65.90;101354.34;5068939;28;45716;-85
2023/05/13 09:18:29;;;;;;;;;63.50;48.00;;;;;16.57;65.67;101363.53;5075611;27;45553;-88
2023/05/13 09:20:55;;;;;;;;;56.75;45.50;;;;;16.56;65.67;101363.69;5078524;28;45603;-85
2023/05/13 09:23:22;;;;;;;;;56.00;44.75;;;;;16.53;65.58;101369.22;5079751;27;45557;-79
2023/05/13 09:25:48;;;;;;;;;57.00;46.00;;;;;16.52;65.34;101365.75;5080803;28;45489;-88
2023/05/13 09:28:14;;;;;;;;;59.50;46.25;;;;;16.52;65.31;101360.44;5081411;28;45687;-85
2023/05/13 09:30:40;;;;;;;;;61.50;47.50;;;;;16.58;65.16;101374.97;5078214;27;45606;-78
2023/05/13 09:33:18;;;;;;;;;61.00;48.00;;;;;16.59;65.47;101368.75;5078551;27;45885;-84
2023/05/13 09:35:52;;;;;;;;;60.25;47.75;;;;;16.65;65.28;101368.25;5079910;28;46085;-82
2023/05/13 09:38:25;;;;;;;;;62.50;47.50;;;;;16.73;65.25;101366.63;5080356;28;45913;-79
2023/05/13 09:40:57;;;;;;;;;60.00;48.00;;;;;16.79;64.66;101371.38;5080777;28;46449;-84
2023/05/13 09:43:26;;;;;;;;;57.00;44.25;;;;;16.83;64.47;101366.69;5096126;27;46225;-81
2023/05/13 09:45:55;;;;;;;;;57.75;48.00;;;;;16.87;64.56;101365.44;5081398;27;45714;-88
2023/05/13 09:48:26;;;;;;;;;61.25;47.25;;;;;16.88;64.57;101363.66;5079788;27;45520;-83
2023/05/13 09:50:52;;;;;;;;;55.25;46.25;;;;;16.86;64.37;101369.06;5079843;27;46974;-87
2023/05/13 09:53:19;;;;;;;;;58.50;46.50;;;;;16.88;64.16;101367.13;5080279;28;45729;-90
2023/05/13 09:55:50;;;;;;;;;62.75;47.00;;;;;16.87;64.45;101365.44;5078214;27;45920;-85
2023/05/13 09:58:17;;;;;;;;;56.00;45.00;;;;;16.87;63.96;101373.41;5077746;27;45594;-88
2023/05/13 10:00:43;;;;;;;;;57.50;45.00;;;;;16.85;63.80;101355.94;5077511;27;45687;-82
2023/05/13 10:03:09;;;;;;;;;59.00;46.25;;;;;16.85;64.16;101358.59;5077655;28;46036;-85
2023/05/13 10:05:35;;;;;;;;;56.50;43.25;;;;;16.83;63.98;101357.91;5076940;27;45521;-84
2023/05/13 10:08:02;;;;;;;;;54.50;44.00;;;;;16.86;64.42;101361.13;5077616;27;45498;-90
2023/05/13 10:10:33;;;;;;;;;51.00;41.50;;;;;16.87;63.78;101357.50;5077672;27;46437;-82
2023/05/13 10:16:22;;;;;;;;;58.75;45.50;;;;;16.89;64.18;101355.59;5073127;28;45717;-87
2023/05/13 10:18:48;;;;;;;;;56.50;44.25;;;;;16.89;63.62;101344.16;5077700;28;45696;-85
2023/05/13 10:21:13;;;;;;;;;57.75;43.25;;;;;16.91;63.64;101340.38;5078485;28;46366;-88
2023/05/13 10:23:39;;;;;;;;;51.25;42.50;;;;;16.97;64.03;101346.97;5076455;27;45843;-80
2023/05/13 10:26:05;;;;;;;;;60.25;44.75;;;;;17.05;63.66;101347.16;5076526;27;46074;-86
2023/05/13 10:28:31;;;;;;;;;59.00;45.75;;;;;17.13;63.34;101344.66;5083710;27;45610;-80
2023/05/13 10:30:56;;;;;;;;;56.25;45.00;;;;;17.20;64.10;101344.03;5097887;27;47620;-88
2023/05/13 10:33:23;;;;;;;;;59.50;46.75;;;;;17.35;63.71;101344.47;5084297;27;46463;-87
2023/05/13 10:36:20;;;;;;;;;54.75;42.50;;;;;17.47;63.28;101345.22;5080365;28;45606;-85
2023/05/13 10:39:01;;;;;;;;;52.25;42.25;;;;;17.60;62.73;101340.53;5079658;28;45662;-89
2023/05/13 10:41:54;;;;;;;;;52.50;43.75;;;;;17.71;62.54;101347.53;5082906;28;45477;-88
2023/05/13 10:44:20;;;;;;;;;57.75;44.00;;;;;17.76;62.19;101350.63;5081889;27;45479;-87
2023/05/13 10:46:48;;;;;;;;;54.50;43.25;;;;;17.82;61.97;101342.94;5078951;27;45559;-84
2023/05/13 10:49:17;;;;;;;;;51.75;42.25;;;;;17.88;61.90;101331.78;5079781;27;45549;-85
2023/05/13 10:51:47;;;;;;;;;58.75;45.00;;;;;17.89;61.54;101333.47;5077919;27;46533;-91
2023/05/13 10:54:23;;;;;;;;;53.50;43.75;;;;;17.90;61.78;101329.84;5078041;27;46149;-85
2023/05/13 10:56:56;;;;;;;;;53.75;43.50;;;;;17.92;61.95;101321.75;5076781;27;45749;-83
2023/05/13 10:59:22;;;;;;;;;54.25;44.25;;;;;17.96;61.34;101315.19;5075821;27;45486;-84
2023/05/13 11:01:48;;;;;;;;;51.75;42.75;;;;;17.99;61.43;101325.50;5075910;27;46209;-83
2023/05/13 11:04:17;;;;;;;;;49.25;38.75;;;;;18.00;61.17;101321.88;5075519;27;46655;-88
2023/05/13 11:06:46;;;;;;;;;46.50;39.00;;;;;18.03;60.92;101325.09;5076061;27;45690;-82
2023/05/13 11:09:14;;;;;;;;;49.25;38.00;;;;;18.05;60.20;101314.34;5074229;28;45503;-75
2023/05/13 11:11:40;;;;;;;;;50.50;40.75;;;;;18.02;60.49;101320.78;5075291;27;48478;-77
2023/05/13 11:14:16;;;;;;;;;45.25;39.25;;;;;18.03;60.21;101329.56;5075133;28;46288;-81
2023/05/13 11:17:05;;;;;;;;;51.00;41.75;;;;;18.02;60.40;101312.00;5075071;27;45609;-81
2023/05/13 11:19:36;;;;;;;;;50.50;40.00;;;;;18.06;60.45;101328.44;5063298;28;45572;-80
2023/05/13 11:22:09;;;;;;;;;50.25;38.50;;;;;18.09;59.24;101325.50;5073542;28;48655;-79
2023/05/13 11:24:35;;;;;;;;;55.50;43.00;;;;;18.07;59.57;101317.72;5075014;27;46226;-79
2023/05/13 11:27:18;;;;;;;;;54.50;43.50;;;;;18.08;59.80;101311.44;5090453;27;45832;-82
2023/05/13 11:29:51;;;;;;;;;51.25;41.75;;;;;18.13;59.43;101316.31;5075057;28;45670;-78
2023/05/13 11:32:54;;;;;;;;;49.25;40.25;;;;;18.15;59.79;101293.97;5074983;27;45617;-78
2023/05/13 11:35:21;;;;;;;;;48.50;41.50;;;;;18.24;59.12;101294.94;5074732;28;46052;-81
2023/05/13 11:37:48;;;;;;;;;53.75;43.50;;;;;18.28;59.02;101286.56;5074936;27;45580;-82
2023/05/13 11:40:23;;;;;;;;;51.50;41.25;;;;;18.32;59.08;101313.63;5075157;27;45894;-78
2023/05/13 11:42:49;;;;;;;;;53.50;42.50;;;;;18.36;59.04;101291.97;5072600;28;47841;-78
2023/05/13 11:45:16;;;;;;;;;51.25;42.00;;;;;18.40;59.19;101300.50;5074523;27;45646;-81
2023/05/13 11:47:42;;;;;;;;;55.00;42.50;;;;;18.40;58.78;101284.59;5074823;27;45838;-78
2023/05/13 11:50:29;;;;;;;;;52.00;41.00;;;;;18.47;58.94;101288.31;5075163;28;45933;-76
2023/05/13 11:52:59;;;;;;;;;53.25;43.75;;;;;18.53;59.19;101271.00;5075439;27;45471;-80
2023/05/13 11:55:26;;;;;;;;;52.00;39.75;;;;;18.58;59.00;101266.97;5074834;28;46239;-77
2023/05/13 11:57:52;;;;;;;;;56.75;43.00;;;;;18.67;59.04;101273.22;5075627;27;45600;-81
2023/05/13 12:00:24;;;;;;;;;51.25;41.75;;;;;18.75;58.91;101258.25;5076937;27;45812;-85
2023/05/13 12:02:50;;;;;;;;;54.25;42.00;;;;;18.82;58.80;101262.00;5073453;28;48492;-82
2023/05/13 12:05:16;;;;;;;;;50.25;41.75;;;;;18.85;58.85;101253.72;5074798;27;45705;-84
2023/05/13 12:07:41;;;;;;;;;51.50;42.00;;;;;18.91;58.76;101254.94;5074644;27;45608;-81
2023/05/13 12:10:07;;;;;;;;;47.00;39.25;;;;;19.00;58.16;101253.25;5074777;27;45833;-81
2023/05/13 12:12:36;;;;;;;;;47.00;40.00;;;;;19.08;58.33;101248.84;5074352;27;46716;-82
2023/05/13 12:15:04;;;;;;;;;45.25;38.25;;;;;19.16;57.82;101245.47;5073952;27;46068;-83
2023/05/13 12:17:31;;;;;;;;;50.25;41.00;;;;;19.22;57.54;101236.88;5074406;27;45666;-87
2023/05/13 12:20:12;;;;;;;;;52.00;40.50;;;;;19.29;57.31;101254.75;5074939;27;45593;-84